createdAt,value
2024-02-22T05:34:41.989Z,100000.78
2024-02-22T05:37:44.726Z,100000.78
2024-02-22T05:40:47.276Z,100009.59
2024-02-22T05:43:49.860Z,100005.25
2024-02-22T05:46:52.359Z,99998.31
2024-02-22T05:49:54.887Z,100003.50
2024-02-22T05:52:57.309Z,100001.78
2024-02-22T05:55:59.914Z,99996.56
2024-02-22T05:59:02.441Z,100000.03
2024-02-22T06:02:05.284Z,99999.16
2024-02-22T06:05:08.972Z,99987.91
2024-02-22T06:08:13.212Z,99993.87
2024-02-22T06:11:17.350Z,99986.09
2024-02-22T06:14:20.553Z,99983.56
2024-02-22T06:17:23.113Z,99974.91
2024-02-22T06:20:25.728Z,99983.53
2024-02-22T06:23:28.262Z,99979.22
2024-02-22T06:26:34.739Z,99976.56
2024-02-22T06:29:37.217Z,99973.13
2024-02-22T06:32:39.781Z,99969.63
2024-02-22T06:35:42.775Z,99963.59
2024-02-22T06:38:47.332Z,99967.06
2024-02-22T06:41:50.055Z,99968.66
2024-02-22T06:44:53.398Z,99957.41
2024-02-22T06:47:55.910Z,99957.34
2024-02-22T06:50:58.487Z,99957.41
2024-02-22T06:54:01.021Z,99962.50
2024-02-22T06:57:07.083Z,99961.53
2024-02-22T07:00:11.957Z,99954.63
2024-02-22T07:03:14.444Z,99956.31
2024-02-22T07:06:17.055Z,99947.59
2024-02-22T07:09:19.571Z,99951.91
2024-02-22T07:12:21.988Z,99948.44
2024-02-22T07:18:27.551Z,99927.59
2024-02-22T07:21:36.554Z,99932.63
2024-02-22T07:24:39.105Z,99925.72
2024-02-22T07:27:41.616Z,99923.91
2024-02-22T07:30:44.563Z,99923.81
2024-02-22T07:33:47.228Z,99914.22
2024-02-22T07:36:49.727Z,99906.34
2024-02-22T07:39:54.918Z,99909.69
2024-02-22T07:42:57.405Z,99901.78
2024-02-22T07:46:03.844Z,99902.66
2024-02-22T07:49:06.490Z,99888.69
2024-02-22T07:52:08.954Z,99895.69
2024-02-22T07:55:11.396Z,99894.56
2024-02-22T07:58:13.891Z,99886.72
2024-02-22T08:01:16.504Z,99889.25
2024-02-22T08:04:20.517Z,99879.66
2024-02-22T08:07:23.221Z,99872.69
2024-02-22T08:10:25.624Z,99863.91
2024-02-22T08:13:28.099Z,99859.44
2024-02-22T08:16:30.543Z,99856.69
2024-02-22T08:19:33.119Z,99856.66
2024-02-22T08:22:36.674Z,99853.94
2024-02-22T08:25:39.234Z,99847.72
2024-02-22T08:28:41.853Z,99836.31
2024-02-22T08:31:44.497Z,99830.12
2024-02-22T08:34:47.149Z,99837.06
2024-02-22T08:37:49.796Z,99827.31
2024-02-22T08:40:52.729Z,99831.50
2024-02-22T08:43:55.502Z,99819.13
2024-02-22T08:47:04.773Z,99818.22
2024-02-22T08:50:13.665Z,99817.28
2024-02-22T08:53:16.176Z,99805.66
2024-02-22T08:56:19.797Z,99807.22
2024-02-22T08:59:23.512Z,99801.84
2024-02-22T09:02:26.113Z,99804.28
2024-02-22T09:05:29.005Z,99797.25
2024-02-22T09:08:32.800Z,99804.13
2024-02-22T09:11:35.506Z,99793.81
2024-02-22T09:14:38.850Z,99787.63
2024-02-22T09:17:41.539Z,99783.41
2024-02-22T09:20:44.008Z,99768.47
2024-02-22T09:23:47.987Z,99766.75
2024-02-22T09:26:50.707Z,99758.69
2024-02-22T09:29:55.173Z,99755.75
2024-02-22T09:32:57.801Z,99742.94
2024-02-22T09:36:00.368Z,99738.38
2024-02-22T09:39:04.340Z,99740.28
2024-02-22T09:42:06.915Z,99735.72
2024-02-22T09:45:14.602Z,99720.47
2024-02-22T09:48:19.448Z,99739.56
2024-02-22T09:51:23.259Z,99732.78
2024-02-22T09:54:27.054Z,99716.25
2024-02-22T09:57:29.595Z,99704.72
2024-02-22T10:00:32.344Z,99702.44
2024-02-22T10:03:38.922Z,99704.13
2024-02-22T10:06:41.553Z,99686.00
2024-02-22T10:09:46.180Z,99677.25
2024-02-22T10:12:50.579Z,99674.06
2024-02-22T10:15:54.927Z,99658.81
2024-02-22T10:19:01.623Z,99646.47
2024-02-22T10:22:05.099Z,99656.38
2024-02-22T10:25:12.827Z,99650.97
2024-02-22T10:28:15.943Z,99637.19
2024-02-22T10:31:20.562Z,99632.84
2024-02-22T10:34:23.093Z,99619.97
2024-02-22T10:37:25.650Z,99607.88
2024-02-22T10:40:28.391Z,99595.22
2024-02-22T10:43:31.009Z,99595.84
2024-02-22T10:46:37.539Z,99579.50
2024-02-22T10:49:40.633Z,99582.50
2024-02-22T10:52:44.173Z,99569.44
2024-02-22T10:55:53.794Z,99551.59
2024-02-22T10:58:58.871Z,99549.66
2024-02-22T11:02:01.372Z,99537.09
2024-02-22T11:05:04.906Z,99538.69
2024-02-22T11:08:07.626Z,99535.53
2024-02-22T11:11:11.725Z,99526.69
2024-02-22T11:14:17.587Z,99518.34
2024-02-22T11:17:28.019Z,99519.00
2024-02-22T11:20:33.293Z,99514.94
2024-02-22T11:23:36.538Z,99508.28
2024-02-22T11:26:39.564Z,99499.06
2024-02-22T11:29:42.753Z,99487.03
2024-02-22T11:32:45.773Z,99495.81
2024-02-22T11:35:53.511Z,99493.25
2024-02-22T11:39:00.450Z,99488.06
2024-02-22T11:42:03.249Z,99469.59
2024-02-22T11:45:13.252Z,99481.13
2024-02-22T11:48:16.107Z,99483.75
2024-02-22T11:51:19.004Z,99477.97
2024-02-22T11:54:23.918Z,99471.53
2024-02-22T11:57:30.688Z,99470.38
2024-02-22T12:00:34.396Z,99465.41
2024-02-22T12:03:37.274Z,99458.59
2024-02-22T12:06:50.066Z,99454.00
2024-02-22T12:09:53.693Z,99458.47
2024-02-22T12:12:56.607Z,99447.19
2024-02-22T12:16:10.093Z,99453.72
2024-02-22T12:19:20.227Z,99448.19
2024-02-22T12:22:24.041Z,99441.06
2024-02-22T12:25:27.185Z,99448.69
2024-02-22T12:28:30.507Z,99435.69
2024-02-22T12:31:33.834Z,99446.63
2024-02-22T12:34:39.802Z,99434.84
2024-02-22T12:37:44.080Z,99423.78
2024-02-22T12:40:47.111Z,99424.72
2024-02-22T12:43:51.041Z,99407.75
2024-02-22T12:46:54.192Z,99405.28
2024-02-22T12:50:00.839Z,99404.06
2024-02-22T12:53:05.541Z,99384.72
2024-02-22T12:56:08.446Z,99383.66
2024-02-22T12:59:11.045Z,99379.47
2024-02-22T13:02:14.076Z,99380.75
2024-02-22T13:05:16.936Z,99375.06
2024-02-22T13:08:26.062Z,99378.09
2024-02-22T13:11:33.110Z,99373.75
2024-02-22T13:14:37.310Z,99368.78
2024-02-22T13:17:40.176Z,99362.97
2024-02-22T13:20:45.177Z,99362.75
2024-02-22T13:23:49.866Z,99367.47
2024-02-22T13:26:52.874Z,99366.19
2024-02-22T13:29:55.348Z,99363.13
2024-02-22T13:32:58.723Z,99366.91
2024-02-22T13:36:09.835Z,99362.91
2024-02-22T13:39:15.143Z,99351.63
2024-02-22T13:42:17.669Z,99352.34
2024-02-22T13:45:20.152Z,99345.69
2024-02-22T13:48:22.662Z,99343.28
2024-02-22T13:51:33.078Z,99348.97
2024-02-22T13:54:39.547Z,99344.94
2024-02-22T13:57:42.194Z,99329.31
2024-02-22T14:00:47.312Z,99322.78
2024-02-22T14:03:51.012Z,99320.63
2024-02-22T14:06:53.525Z,99316.38
2024-02-22T14:09:56.050Z,99326.31
2024-02-22T14:13:00.200Z,99304.50
2024-02-22T14:16:03.896Z,99315.50
2024-02-22T14:19:06.483Z,99303.81
2024-02-22T14:22:09.354Z,99303.03
2024-02-22T14:25:11.948Z,99299.59
2024-02-22T14:28:14.501Z,99302.28
2024-02-22T14:31:17.088Z,99295.44
2024-02-22T14:34:21.141Z,99295.84
2024-02-22T14:37:23.708Z,99288.69
2024-02-22T14:40:26.223Z,99276.69
2024-02-22T14:43:28.703Z,99284.75
2024-02-22T14:46:31.246Z,99285.44
2024-02-22T14:49:33.814Z,99281.19
2024-02-22T14:52:36.374Z,99271.31
2024-02-22T14:55:40.984Z,99270.56
2024-02-22T14:58:45.751Z,99265.00
2024-02-22T15:01:48.396Z,99261.00
2024-02-22T15:04:51.524Z,99251.50
2024-02-22T15:07:54.043Z,99242.06
2024-02-22T15:10:56.663Z,99233.91
2024-02-22T15:13:59.238Z,99227.41
2024-02-22T15:17:02.440Z,99221.59
2024-02-22T15:20:06.101Z,99217.31
2024-02-22T15:23:08.651Z,99211.41
2024-02-22T15:26:11.343Z,99210.47
2024-02-22T15:29:13.911Z,99204.12
2024-02-22T15:32:16.390Z,99213.19
2024-02-22T15:35:20.782Z,99193.91
2024-02-22T15:38:24.685Z,99200.84
2024-02-22T15:41:29.893Z,99194.84
2024-02-22T15:44:32.346Z,99195.66
2024-02-22T15:47:34.785Z,99197.31
2024-02-22T15:50:37.326Z,99201.81
2024-02-22T15:53:39.785Z,99207.78
2024-02-22T15:56:42.307Z,99201.44
